Wetterdaten: Woche 01.10.12 - 07.10.12 (KW40)
Datum Zeit Temp. A. Feuchte A. Luftdruck Regen Wind Richtung Taupunkt Windchill Windben
01.10.2012 00:00 10,1 C 83 % 1019,8 hPa 0,0 l/m 0,0 km/h N 7,3 C 10,1 C 0,0 km/h
01.10.2012 01:00 10,3 C 82 % 1019,0 hPa 0,0 l/m 0,0 km/h N 7,2 C 10,3 C 0,0 km/h
01.10.2012 02:00 10,8 C 80 % 1018,5 hPa 0,0 l/m 0,0 km/h N 7,6 C 10,8 C 1,2 km/h
01.10.2012 03:00 11,3 C 80 % 1018,0 hPa 0,0 l/m 0,0 km/h N 7,9 C 11,3 C 0,4 km/h
01.10.2012 04:00 11,8 C 79 % 1017,6 hPa 0,0 l/m 0,2 km/h N 8,2 C 11,8 C 2,8 km/h
01.10.2012 05:00 12,1 C 79 % 1017,3 hPa 0,0 l/m 0,0 km/h N 8,5 C 12,1 C 0,0 km/h
01.10.2012 06:00 12,5 C 80 % 1016,9 hPa 0,0 l/m 0,0 km/h N 9,0 C 12,5 C 1,2 km/h
01.10.2012 07:00 12,7 C 81 % 1017,0 hPa 0,0 l/m 0,5 km/h N 9,4 C 12,7 C 3,2 km/h
01.10.2012 08:00 13,5 C 83 % 1016,7 hPa 0,0 l/m 0,5 km/h N 10,6 C 13,5 C 4,4 km/h
01.10.2012 09:00 14,4 C 83 % 1016,9 hPa 0,0 l/m 0,3 km/h N 11,5 C 14,4 C 3,6 km/h
01.10.2012 10:00 15,7 C 81 % 1016,9 hPa 0,0 l/m 0,4 km/h N 12,5 C 15,7 C 4,0 km/h
01.10.2012 11:00 18,3 C 77 % 1016,2 hPa 0,0 l/m 2,0 km/h N 14,1 C 18,3 C 8,0 km/h
01.10.2012 12:00 22,2 C 65 % 1015,6 hPa 0,0 l/m 5,1 km/h N 15,2 C 22,2 C 14,9 km/h
01.10.2012 13:00 23,4 C 61 % 1015,1 hPa 0,0 l/m 2,9 km/h N 15,5 C 23,4 C 13,3 km/h
01.10.2012 14:00 22,5 C 64 % 1015,0 hPa 0,0 l/m 3,9 km/h N 15,2 C 22,4 C 13,7 km/h
01.10.2012 15:00 20,5 C 68 % 1015,1 hPa 0,0 l/m 6,3 km/h N 14,3 C 20,3 C 16,1 km/h
01.10.2012 16:00 20,1 C 67 % 1015,2 hPa 0,0 l/m 6,8 km/h N 13,8 C 19,9 C 17,7 km/h
01.10.2012 17:00 19,5 C 67 % 1015,2 hPa 0,0 l/m 5,2 km/h N 13,2 C 19,5 C 14,9 km/h
01.10.2012 18:00 18,7 C 68 % 1015,5 hPa 0,0 l/m 3,4 km/h N 12,7 C 18,7 C 12,9 km/h
01.10.2012 19:00 17,4 C 71 % 1016,2 hPa 0,0 l/m 1,7 km/h N 12,0 C 17,4 C 8,4 km/h
01.10.2012 20:00 16,5 C 74 % 1016,5 hPa 0,0 l/m 3,3 km/h N 11,9 C 16,5 C 12,1 km/h
01.10.2012 21:00 16,7 C 74 % 1016,8 hPa 0,0 l/m 3,4 km/h N 11,9 C 16,7 C 12,1 km/h
01.10.2012 22:00 16,8 C 71 % 1017,3 hPa 0,0 l/m 4,0 km/h N 11,5 C 16,8 C 14,5 km/h
01.10.2012 23:00 16,6 C 70 % 1017,2 hPa 0,0 l/m 2,4 km/h N 11,2 C 16,6 C 10,5 km/h
02.10.2012 00:00 16,3 C 73 % 1016,9 hPa 0,0 l/m 0,9 km/h N 11,3 C 16,3 C 7,6 km/h
02.10.2012 01:00 16,2 C 74 % 1017,1 hPa 0,0 l/m 1,1 km/h N 11,5 C 16,2 C 8,1 km/h
02.10.2012 02:00 16,4 C 73 % 1017,2 hPa 0,0 l/m 4,8 km/h N 11,6 C 16,2 C 17,7 km/h
02.10.2012 03:00 16,4 C 73 % 1017,2 hPa 0,0 l/m 4,9 km/h N 11,4 C 16,2 C 13,7 km/h
02.10.2012 04:00 15,9 C 75 % 1017,4 hPa 0,0 l/m 0,6 km/h N 11,3 C 15,9 C 4,8 km/h
02.10.2012 05:00 15,1 C 78 % 1017,8 hPa 0,0 l/m 0,6 km/h N 11,3 C 15,1 C 4,8 km/h
02.10.2012 06:00 14,8 C 80 % 1017,6 hPa 0,0 l/m 1,4 km/h N 11,4 C 14,8 C 6,0 km/h
02.10.2012 07:00 14,9 C 81 % 1017,8 hPa 0,0 l/m 1,6 km/h N 11,6 C 14,9 C 7,2 km/h
02.10.2012 08:00 15,0 C 81 % 1018,1 hPa 0,0 l/m 2,9 km/h N 11,7 C 15,0 C 9,3 km/h
02.10.2012 09:00 16,0 C 76 % 1018,2 hPa 0,0 l/m 5,7 km/h N 11,8 C 16,0 C 16,9 km/h
02.10.2012 10:00 16,5 C 73 % 1018,4 hPa 0,0 l/m 7,3 km/h N 11,7 C 16,0 C 19,7 km/h
02.10.2012 11:00 16,7 C 70 % 1018,6 hPa 0,0 l/m 7,3 km/h N 11,2 C 16,1 C 21,7 km/h
02.10.2012 12:00 16,0 C 73 % 1018,6 hPa 0,0 l/m 6,0 km/h N 11,2 C 15,9 C 16,5 km/h
02.10.2012 13:00 16,0 C 73 % 1018,3 hPa 0,0 l/m 7,9 km/h N 11,2 C 15,2 C 20,9 km/h
02.10.2012 14:00 16,3 C 70 % 1018,2 hPa 0,0 l/m 8,1 km/h N 10,9 C 15,5 C 22,1 km/h
02.10.2012 15:00 15,2 C 76 % 1018,1 hPa 0,3 l/m 5,1 km/h N 11,0 C 15,2 C 15,3 km/h
02.10.2012 16:00 14,7 C 82 % 1017,9 hPa 0,0 l/m 2,5 km/h N 11,6 C 14,7 C 8,1 km/h
02.10.2012 17:00 14,9 C 82 % 1017,8 hPa 0,0 l/m 1,3 km/h N 11,9 C 14,9 C 6,4 km/h
02.10.2012 18:00 15,0 C 82 % 1017,7 hPa 0,3 l/m 0,7 km/h N 11,9 C 15,0 C 4,4 km/h
02.10.2012 19:00 13,9 C 82 % 1017,8 hPa 0,0 l/m 0,0 km/h N 10,9 C 13,9 C 0,0 km/h
02.10.2012 20:00 12,6 C 83 % 1017,9 hPa 0,0 l/m 0,0 km/h N 9,8 C 12,6 C 1,6 km/h
02.10.2012 21:00 12,4 C 83 % 1017,8 hPa 0,0 l/m 0,7 km/h N 9,5 C 12,4 C 5,6 km/h
02.10.2012 22:00 12,1 C 83 % 1017,7 hPa 0,0 l/m 0,4 km/h N 9,3 C 12,1 C 4,4 km/h
02.10.2012 23:00 12,0 C 83 % 1017,8 hPa 0,0 l/m 0,5 km/h N 9,2 C 12,0 C 4,0 km/h
03.10.2012 00:00 11,2 C 83 % 1017,6 hPa 0,0 l/m 0,4 km/h N 8,4 C 11,2 C 4,8 km/h
03.10.2012 01:00 10,8 C 83 % 1017,6 hPa 0,0 l/m 0,2 km/h N 8,0 C 10,8 C 4,0 km/h
03.10.2012 02:00 10,2 C 83 % 1017,5 hPa 0,0 l/m 0,4 km/h N 7,4 C 10,2 C 4,0 km/h
03.10.2012 03:00 9,6 C 82 % 1017,5 hPa 0,0 l/m 0,1 km/h N 6,7 C 9,6 C 1,6 km/h
03.10.2012 04:00 9,1 C 81 % 1017,6 hPa 0,0 l/m 0,1 km/h N 6,0 C 9,1 C 1,6 km/h
03.10.2012 05:00 9,6 C 80 % 1017,8 hPa 0,0 l/m 0,8 km/h N 6,3 C 9,6 C 5,2 km/h
03.10.2012 06:00 9,9 C 82 % 1017,6 hPa 0,0 l/m 0,1 km/h N 6,9 C 9,9 C 3,2 km/h
03.10.2012 07:00 9,9 C 82 % 1017,9 hPa 0,0 l/m 0,2 km/h N 7,0 C 9,9 C 2,8 km/h
03.10.2012 08:00 12,0 C 82 % 1018,2 hPa 0,0 l/m 1,9 km/h N 8,9 C 12,0 C 7,2 km/h
03.10.2012 09:00 15,7 C 71 % 1018,2 hPa 0,0 l/m 4,4 km/h N 10,3 C 15,7 C 14,5 km/h
03.10.2012 10:00 17,5 C 62 % 1018,2 hPa 0,0 l/m 7,3 km/h N 10,0 C 16,7 C 20,5 km/h
03.10.2012 11:00 18,2 C 58 % 1018,2 hPa 0,0 l/m 10,0 km/h N 9,9 C 16,7 C 24,9 km/h
03.10.2012 12:00 19,2 C 53 % 1018,0 hPa 0,0 l/m 8,7 km/h N 9,5 C 18,2 C 21,3 km/h
03.10.2012 13:00 20,0 C 52 % 1017,4 hPa 0,0 l/m 8,8 km/h N 9,9 C 19,1 C 22,1 km/h
03.10.2012 14:00 20,5 C 49 % 1016,9 hPa 0,0 l/m 7,4 km/h N 9,5 C 20,0 C 18,9 km/h
03.10.2012 15:00 20,8 C 44 % 1016,6 hPa 0,0 l/m 4,5 km/h N 8,0 C 20,8 C 14,9 km/h
03.10.2012 16:00 21,0 C 41 % 1016,4 hPa 0,0 l/m 4,6 km/h N 7,2 C 21,0 C 14,9 km/h
03.10.2012 17:00 20,8 C 43 % 1016,2 hPa 0,0 l/m 2,5 km/h N 7,6 C 20,8 C 10,5 km/h
03.10.2012 18:00 19,0 C 50 % 1016,3 hPa 0,0 l/m 0,0 km/h N 8,3 C 19,0 C 0,8 km/h
03.10.2012 19:00 15,4 C 62 % 1016,6 hPa 0,0 l/m 0,0 km/h N 8,1 C 15,4 C 0,0 km/h
03.10.2012 20:00 13,0 C 71 % 1016,8 hPa 0,0 l/m 0,2 km/h N 8,0 C 13,0 C 0,8 km/h
03.10.2012 21:00 12,9 C 73 % 1016,8 hPa 0,0 l/m 1,0 km/h N 8,2 C 12,9 C 5,6 km/h
03.10.2012 22:00 12,4 C 74 % 1016,7 hPa 0,0 l/m 0,1 km/h N 8,0 C 12,4 C 2,4 km/h
03.10.2012 23:00 11,0 C 78 % 1016,7 hPa 0,0 l/m 0,0 km/h N 7,3 C 11,0 C 0,0 km/h
04.10.2012 00:00 10,2 C 81 % 1016,7 hPa 0,0 l/m 0,0 km/h N 7,2 C 10,2 C 0,0 km/h
04.10.2012 01:00 9,4 C 83 % 1016,7 hPa 0,0 l/m 0,0 km/h N 6,6 C 9,4 C 0,8 km/h
04.10.2012 02:00 8,4 C 83 % 1016,6 hPa 0,0 l/m 0,0 km/h N 5,7 C 8,4 C 0,0 km/h
04.10.2012 03:00 8,0 C 83 % 1016,3 hPa 0,0 l/m 0,0 km/h N 5,3 C 8,0 C 0,0 km/h
04.10.2012 04:00 7,7 C 83 % 1016,5 hPa 0,0 l/m 0,0 km/h N 5,0 C 7,7 C 0,0 km/h
04.10.2012 05:00 7,4 C 82 % 1016,3 hPa 0,0 l/m 0,0 km/h N 4,5 C 7,4 C 0,0 km/h
04.10.2012 06:00 7,4 C 81 % 1016,2 hPa 0,0 l/m 0,0 km/h N 4,4 C 7,4 C 0,0 km/h
04.10.2012 07:00 7,3 C 81 % 1016,4 hPa 0,0 l/m 0,0 km/h N 4,2 C 7,3 C 0,4 km/h
04.10.2012 08:00 8,6 C 78 % 1016,6 hPa 0,0 l/m 0,0 km/h N 5,0 C 8,6 C 0,8 km/h
04.10.2012 09:00 11,3 C 78 % 1016,5 hPa 0,0 l/m 0,4 km/h N 7,5 C 11,3 C 4,4 km/h
04.10.2012 10:00 14,3 C 78 % 1016,2 hPa 0,0 l/m 0,8 km/h N 10,6 C 14,3 C 5,6 km/h
04.10.2012 11:00 17,5 C 66 % 1015,3 hPa 0,0 l/m 2,1 km/h N 11,0 C 17,5 C 8,1 km/h
04.10.2012 12:00 19,2 C 62 % 1014,7 hPa 0,0 l/m 1,8 km/h N 11,7 C 19,2 C 8,9 km/h
04.10.2012 13:00 20,4 C 62 % 1013,7 hPa 0,0 l/m 3,3 km/h N 12,9 C 20,4 C 10,9 km/h
04.10.2012 14:00 20,7 C 65 % 1012,6 hPa 0,0 l/m 3,5 km/h N 13,9 C 20,7 C 11,7 km/h
04.10.2012 15:00 21,3 C 64 % 1011,7 hPa 0,0 l/m 2,7 km/h N 14,3 C 21,3 C 9,7 km/h
04.10.2012 16:00 22,0 C 60 % 1010,9 hPa 0,0 l/m 4,9 km/h N 13,8 C 22,0 C 14,1 km/h
04.10.2012 17:00 21,4 C 62 % 1010,8 hPa 0,0 l/m 4,0 km/h N 13,9 C 21,4 C 12,5 km/h
04.10.2012 18:00 20,5 C 65 % 1010,5 hPa 0,0 l/m 2,6 km/h N 13,7 C 20,5 C 8,8 km/h
04.10.2012 19:00 19,5 C 69 % 1010,8 hPa 0,0 l/m 0,8 km/h N 13,7 C 19,5 C 4,8 km/h
04.10.2012 20:00 18,1 C 74 % 1011,9 hPa 0,0 l/m 0,2 km/h N 13,3 C 18,1 C 3,2 km/h
04.10.2012 21:00 18,6 C 71 % 1013,8 hPa 0,0 l/m 10,2 km/h N 13,3 C 17,0 C 26,1 km/h
04.10.2012 22:00 18,3 C 64 % 1015,3 hPa 0,0 l/m 15,7 km/h N 11,2 C 15,1 C 38,2 km/h
04.10.2012 23:00 16,5 C 66 % 1016,6 hPa 0,0 l/m 6,9 km/h N 10,1 C 15,7 C 23,3 km/h
05.10.2012 00:00 14,9 C 64 % 1017,6 hPa 0,0 l/m 15,9 km/h N 8,1 C 10,9 C 36,2 km/h
05.10.2012 01:00 14,2 C 65 % 1018,5 hPa 0,0 l/m 12,9 km/h N 7,7 C 11,0 C 32,2 km/h
05.10.2012 02:00 13,7 C 66 % 1018,3 hPa 0,0 l/m 15,5 km/h N 7,5 C 9,5 C 33,4 km/h
05.10.2012 03:00 13,3 C 68 % 1018,4 hPa 0,0 l/m 10,6 km/h N 7,6 C 11,0 C 28,2 km/h
05.10.2012 04:00 12,8 C 71 % 1019,1 hPa 0,0 l/m 9,0 km/h N 7,7 C 11,3 C 24,9 km/h
05.10.2012 05:00 12,4 C 72 % 1019,4 hPa 0,0 l/m 5,4 km/h N 7,5 C 12,1 C 17,7 km/h
05.10.2012 06:00 11,3 C 75 % 1019,8 hPa 0,0 l/m 0,4 km/h N 7,0 C 11,3 C 3,6 km/h
05.10.2012 07:00 9,6 C 79 % 1020,3 hPa 0,0 l/m 0,0 km/h N 6,1 C 9,6 C 1,2 km/h
05.10.2012 08:00 9,9 C 83 % 1020,5 hPa 0,0 l/m 0,0 km/h N 7,1 C 9,9 C 0,4 km/h
05.10.2012 09:00 12,5 C 78 % 1020,6 hPa 0,0 l/m 1,5 km/h N 8,7 C 12,5 C 6,0 km/h
05.10.2012 10:00 14,7 C 68 % 1020,6 hPa 0,0 l/m 2,9 km/h N 8,8 C 14,7 C 9,3 km/h
05.10.2012 11:00 16,4 C 62 % 1020,3 hPa 0,0 l/m 4,8 km/h N 9,0 C 16,4 C 11,3 km/h
05.10.2012 12:00 18,0 C 58 % 1019,4 hPa 0,0 l/m 6,4 km/h N 9,6 C 17,9 C 16,9 km/h
05.10.2012 13:00 19,6 C 56 % 1018,3 hPa 0,0 l/m 5,9 km/h N 10,5 C 19,4 C 16,9 km/h
05.10.2012 14:00 20,6 C 56 % 1017,3 hPa 0,0 l/m 4,0 km/h N 11,6 C 20,6 C 14,9 km/h
05.10.2012 15:00 21,1 C 57 % 1016,4 hPa 0,0 l/m 1,7 km/h N 12,2 C 21,1 C 10,1 km/h
05.10.2012 16:00 21,7 C 54 % 1015,7 hPa 0,0 l/m 4,8 km/h N 12,1 C 21,7 C 14,9 km/h
05.10.2012 17:00 21,4 C 57 % 1015,4 hPa 0,0 l/m 3,5 km/h N 12,4 C 21,4 C 10,5 km/h
05.10.2012 18:00 20,1 C 60 % 1015,4 hPa 0,0 l/m 1,3 km/h N 12,1 C 20,1 C 6,8 km/h
05.10.2012 19:00 18,1 C 66 % 1015,6 hPa 0,0 l/m 0,7 km/h N 11,6 C 18,1 C 4,4 km/h
05.10.2012 20:00 15,6 C 73 % 1016,2 hPa 0,0 l/m 0,1 km/h N 10,7 C 15,6 C 1,2 km/h
05.10.2012 21:00 13,4 C 80 % 1016,3 hPa 0,0 l/m 0,0 km/h N 10,0 C 13,4 C 0,8 km/h
05.10.2012 22:00 13,0 C 82 % 1016,4 hPa 0,0 l/m 0,8 km/h N 10,0 C 13,0 C 4,4 km/h
05.10.2012 23:00 12,9 C 82 % 1016,7 hPa 0,0 l/m 0,1 km/h N 9,8 C 12,9 C 1,6 km/h
06.10.2012 00:00 11,8 C 83 % 1016,8 hPa 0,0 l/m 0,0 km/h N 9,0 C 11,8 C 1,6 km/h
06.10.2012 01:00 11,6 C 83 % 1016,9 hPa 0,0 l/m 0,2 km/h N 8,7 C 11,6 C 2,8 km/h
06.10.2012 02:00 11,7 C 83 % 1017,2 hPa 0,0 l/m 0,0 km/h N 8,9 C 11,7 C 0,8 km/h
06.10.2012 03:00 11,0 C 83 % 1017,3 hPa 0,0 l/m 0,0 km/h N 8,3 C 11,0 C 2,0 km/h
06.10.2012 04:00 10,8 C 83 % 1017,3 hPa 0,0 l/m 0,0 km/h N 8,0 C 10,8 C 0,0 km/h
06.10.2012 05:00 10,1 C 83 % 1017,5 hPa 0,0 l/m 0,0 km/h N 7,3 C 10,1 C 0,0 km/h
06.10.2012 06:00 9,6 C 83 % 1017,5 hPa 0,0 l/m 0,1 km/h N 6,7 C 9,6 C 1,6 km/h
06.10.2012 07:00 9,5 C 82 % 1017,6 hPa 0,0 l/m 0,3 km/h N 6,6 C 9,5 C 2,4 km/h
06.10.2012 08:00 10,6 C 80 % 1017,7 hPa 0,0 l/m 0,1 km/h N 7,3 C 10,6 C 1,6 km/h
06.10.2012 09:00 14,0 C 80 % 1017,8 hPa 0,0 l/m 0,2 km/h N 10,6 C 14,0 C 3,6 km/h
06.10.2012 10:00 20,0 C 60 % 1017,3 hPa 0,0 l/m 1,8 km/h N 11,8 C 20,0 C 8,4 km/h
06.10.2012 11:00 23,4 C 48 % 1017,0 hPa 0,0 l/m 4,2 km/h N 11,8 C 23,4 C 14,1 km/h
06.10.2012 12:00 24,4 C 46 % 1016,2 hPa 0,0 l/m 7,6 km/h N 11,9 C 24,1 C 20,9 km/h
06.10.2012 13:00 25,5 C 42 % 1015,3 hPa 0,0 l/m 6,0 km/h N 11,5 C 25,4 C 17,3 km/h
06.10.2012 14:00 26,0 C 43 % 1014,7 hPa 0,0 l/m 3,6 km/h N 12,3 C 26,0 C 11,3 km/h
06.10.2012 15:00 25,0 C 48 % 1014,1 hPa 0,0 l/m 3,3 km/h N 13,1 C 25,0 C 9,7 km/h
06.10.2012 16:00 24,6 C 50 % 1013,8 hPa 0,0 l/m 1,3 km/h N 13,3 C 24,6 C 6,4 km/h
06.10.2012 17:00 23,8 C 54 % 1013,7 hPa 0,0 l/m 1,3 km/h N 13,8 C 23,8 C 6,8 km/h
06.10.2012 18:00 21,2 C 62 % 1014,0 hPa 0,0 l/m 0,2 km/h N 13,5 C 21,2 C 4,0 km/h
06.10.2012 19:00 18,2 C 70 % 1013,9 hPa 0,0 l/m 0,0 km/h N 12,6 C 18,2 C 0,8 km/h
06.10.2012 20:00 15,8 C 76 % 1013,7 hPa 0,0 l/m 0,0 km/h N 11,7 C 15,8 C 1,2 km/h
06.10.2012 21:00 15,1 C 80 % 1013,4 hPa 0,0 l/m 0,1 km/h N 11,7 C 15,1 C 1,2 km/h
06.10.2012 22:00 19,1 C 57 % 1013,4 hPa 0,0 l/m 3,1 km/h N 10,2 C 19,1 C 18,9 km/h
06.10.2012 23:00 21,5 C 48 % 1013,3 hPa 0,0 l/m 5,2 km/h N 9,8 C 21,4 C 20,1 km/h
07.10.2012 00:00 21,0 C 48 % 1013,3 hPa 0,0 l/m 2,4 km/h N 9,6 C 21,0 C 12,9 km/h
07.10.2012 01:00 20,4 C 49 % 1013,1 hPa 0,0 l/m 1,4 km/h N 9,3 C 20,4 C 8,9 km/h
07.10.2012 02:00 18,7 C 56 % 1013,1 hPa 0,0 l/m 0,0 km/h N 9,7 C 18,7 C 1,6 km/h
07.10.2012 03:00 16,5 C 65 % 1013,2 hPa 0,0 l/m 0,2 km/h N 9,9 C 16,5 C 3,6 km/h
07.10.2012 04:00 16,9 C 63 % 1013,2 hPa 0,0 l/m 0,2 km/h N 9,9 C 16,9 C 3,2 km/h
07.10.2012 05:00 16,7 C 66 % 1013,1 hPa 0,0 l/m 0,2 km/h N 10,2 C 16,7 C 2,4 km/h
07.10.2012 06:00 18,0 C 61 % 1012,7 hPa 0,0 l/m 4,1 km/h N 10,4 C 18,0 C 14,9 km/h
07.10.2012 07:00 17,8 C 64 % 1012,6 hPa 0,0 l/m 1,1 km/h N 10,8 C 17,8 C 8,8 km/h
07.10.2012 08:00 17,5 C 68 % 1012,3 hPa 0,0 l/m 2,7 km/h N 11,4 C 17,5 C 13,3 km/h
07.10.2012 09:00 16,9 C 74 % 1011,9 hPa 0,0 l/m 1,3 km/h N 12,2 C 16,9 C 8,0 km/h
07.10.2012 10:00 17,2 C 75 % 1011,3 hPa 0,0 l/m 0,4 km/h N 12,7 C 17,2 C 6,8 km/h
07.10.2012 11:00 17,9 C 73 % 1010,9 hPa 0,3 l/m 0,2 km/h N 12,9 C 17,9 C 4,8 km/h
07.10.2012 12:00 17,6 C 76 % 1010,2 hPa 0,0 l/m 0,4 km/h N 13,3 C 17,6 C 4,4 km/h
07.10.2012 13:00 17,5 C 77 % 1009,9 hPa 0,3 l/m 0,3 km/h N 13,5 C 17,5 C 3,6 km/h
07.10.2012 14:00 17,2 C 80 % 1009,3 hPa 0,5 l/m 0,4 km/h N 13,7 C 17,2 C 6,0 km/h
07.10.2012 15:00 15,3 C 81 % 1010,3 hPa 2,1 l/m 7,1 km/h N 12,0 C 13,4 C 20,5 km/h
07.10.2012 16:00 10,9 C 83 % 1013,3 hPa 1,6 l/m 10,8 km/h N 8,1 C 8,2 C 27,4 km/h
07.10.2012 17:00 10,7 C 83 % 1014,8 hPa 0,0 l/m 7,6 km/h N 7,9 C 9,7 C 20,9 km/h
07.10.2012 18:00 10,6 C 80 % 1015,9 hPa 0,0 l/m 13,3 km/h N 7,2 C 6,6 C 30,6 km/h
07.10.2012 19:00 9,6 C 77 % 1016,6 hPa 0,0 l/m 12,0 km/h N 5,7 C 6,0 C 27,0 km/h
07.10.2012 20:00 9,7 C 74 % 1017,4 hPa 0,0 l/m 10,8 km/h N 5,2 C 6,9 C 24,9 km/h
07.10.2012 21:00 10,0 C 71 % 1018,3 hPa 0,0 l/m 9,3 km/h N 5,0 C 8,1 C 26,1 km/h
07.10.2012 22:00 10,1 C 70 % 1018,6 hPa 0,0 l/m 8,8 km/h N 4,8 C 8,4 C 24,1 km/h
07.10.2012 23:00 10,3 C 68 % 1019,1 hPa 0,0 l/m 9,3 km/h N 4,5 C 8,3 C 24,9 km/h
Min-Datum _ 04.10.12 03.10.12 07.10.12 - 01.10.12 - 04.10.12 07.10.12 01.10.12
_ Min-Zeit 07:15 16:15 14:45 - 00:00 - 07:00 19:30 00:00
Minimum _ 7,1 C 40 % 1009,0 hPa - 0,0 km/h - 4,2 C 5,3 C 0,0 km/h
Max-Datum _ 06.10.12 01.10.12 05.10.12 07.10.12 04.10.12 - 01.10.12 06.10.12 04.10.12
_ Max-Zeit 14:15 00:00 09:45 15:30 22:15 - 14:00 14:15 22:15
Maximum _ 26,2 C 83 % 1020,8 hPa 2,1 l/m 20,0 km/h
N
- 16,0 C 26,2 C 48,3 km/h
N
Durchschnitt _ 15,5 C 71 % 1016,2 hPa #5,2 l/m 3,0 km/h N 10,0 C 15,2 C 9,7 km/h